MSC Lisbon — A8LL9 — position and weather

sailwx.info

Track history (hours):
 
Tides and Currents Weather Stations Pressure Air Temp Water Temp Dewpoint Dewpoint Depression Visibility Wind Speed Wind Dir Waves Ship Positions

MSC Lisbon

Last reported at 2018-May-24 14:33 UTC. Time now 2018-May-27 08:10 UTC.
Position N 31°56' W 080°20'.

Length 336.7 m; beam 45.6 m; draft 15.3 m.

MMSI: 636018079.

Date/timePositionNaut miles runAvg speedWind from/ knotsBaromVisibWave heightAir tempDewpointWater temp
2018-May-24 14:33N 31°56' W 080°20'513.0
2018-May-24 14:09N 31°54' W 080°26'1012.4
2018-May-24 13:19N 31°56' W 080°38'28 6.5
2018-May-24 08:56N 32°08' W 081°09'0 0.0
2018-May-24 08:26N 32°08' W 081°09'0 0.0
2018-May-24 07:44N 32°08' W 081°09'0 0.0
2018-May-24 07:26N 32°08' W 081°09'0 0.0
2018-May-24 06:56N 32°08' W 081°09'0 0.0
2018-May-24 06:26N 32°08' W 081°09'0 0.0
2018-May-24 05:56N 32°08' W 081°09'0 0.0
2018-May-24 05:26N 32°08' W 081°09'0 0.0
2018-May-24 04:56N 32°08' W 081°09'0 0.0
2018-May-24 04:20N 32°08' W 081°09'0 0.0
2018-May-24 03:50N 32°08' W 081°09'0 0.0
2018-May-24 03:26N 32°08' W 081°09'0 0.0
2018-May-24 02:56N 32°08' W 081°09'0 0.0
2018-May-24 02:26N 32°08' W 081°09'0 0.0
2018-May-24 01:56N 32°08' W 081°09'0 0.0
2018-May-24 01:26N 32°08' W 081°09'0 0.0
2018-May-24 00:56N 32°08' W 081°09'0 0.0
2018-May-24 00:26N 32°08' W 081°09'0 0.0
2018-May-23 23:56N 32°08' W 081°09'0 0.0
2018-May-23 23:26N 32°08' W 081°09'0 0.0
2018-May-23 22:56N 32°08' W 081°09'0 0.0
2018-May-23 22:26N 32°08' W 081°09'0 0.0
2018-May-23 21:56N 32°08' W 081°09'0 0.0
2018-May-23 21:26N 32°08' W 081°09'0 0.0
2018-May-23 20:56N 32°08' W 081°09'0 0.0
2018-May-23 20:26N 32°08' W 081°09'0 0.0
2018-May-23 19:56N 32°08' W 081°09'0 0.0
2018-May-23 19:20N 32°08' W 081°09'0 0.0
2018-May-23 18:56N 32°08' W 081°09'0 0.0
2018-May-23 18:26N 32°08' W 081°09'0 0.0
2018-May-23 17:56N 32°08' W 081°09'0 0.0
2018-May-23 17:20N 32°08' W 081°09'0 0.0
2018-May-23 16:56N 32°08' W 081°09'0 0.0
2018-May-23 16:30N 32°08' W 081°09'0 0.0
2018-May-23 15:59N 32°08' W 081°09'0 0.0
2018-May-23 15:28N 32°08' W 081°09'0 0.0
2018-May-23 14:55N 32°08' W 081°09'0 0.0
2018-May-23 14:27N 32°08' W 081°09'0 0.0
2018-May-23 14:00N 32°08' W 081°09'0 0.0
2018-May-23 13:30N 32°08' W 081°09'0 0.0
2018-May-23 12:59N 32°08' W 081°09'0 0.0
2018-May-23 12:29N 32°08' W 081°09'0 0.0
2018-May-23 11:43N 32°08' W 081°09'0 0.0
2018-May-23 11:25N 32°08' W 081°09'0 0.0
2018-May-23 10:54N 32°08' W 081°09'0 0.0
2018-May-23 10:30N 32°08' W 081°09'0 0.0
2018-May-23 10:00N 32°08' W 081°09'0 0.1
2018-May-23 09:30N 32°08' W 081°08'1 2.3
2018-May-23 09:00N 32°07' W 081°08'2 5.0
2018-May-23 08:30N 32°05' W 081°06'3 5.4
2018-May-23 08:00N 32°05' W 081°03'3 6.0
2018-May-23 07:30N 32°05' W 080°59'611.1
2018-May-23 07:00N 32°02' W 080°54'713.3
2018-May-23 06:30N 31°59' W 080°46'613.0
2018-May-23 06:00N 31°57' W 080°39'510.3
2018-May-23 05:30N 31°54' W 080°34'713.5
2018-May-23 05:00N 31°51' W 080°27'814.9
2018-May-23 04:28N 31°47' W 080°19'1415.2
2018-May-23 03:32N 31°39' W 080°05'115.6
2018-May-23 03:29N 31°39' W 080°04'2515.5
2018-May-23 01:54N 31°26' W 079°39'  
2018-May-19 19:23N 09°21' W 079°54'0 0.0
2018-May-19 18:59N 09°21' W 079°54'0 0.0
2018-May-19 18:29N 09°21' W 079°54'0 0.0
2018-May-19 17:59N 09°21' W 079°54'0 0.0
2018-May-19 17:29N 09°21' W 079°54'0 0.0
2018-May-19 16:59N 09°21' W 079°54'0 0.0
2018-May-19 16:29N 09°21' W 079°54'0 0.0
2018-May-19 15:59N 09°21' W 079°54'0 0.0
2018-May-19 15:29N 09°21' W 079°54'0 0.0
2018-May-19 14:59N 09°21' W 079°54'0 0.0
2018-May-19 14:28N 09°21' W 079°54'0 0.0
2018-May-19 13:58N 09°21' W 079°54'0 0.0
2018-May-19 13:28N 09°21' W 079°54'0 0.0
2018-May-19 12:58N 09°21' W 079°54'0 0.0
2018-May-19 12:28N 09°21' W 079°54'0 0.0
2018-May-19 11:58N 09°21' W 079°54'0 0.0
2018-May-19 11:28N 09°21' W 079°54'0 0.0
2018-May-19 10:58N 09°21' W 079°54'0 0.0
2018-May-19 10:28N 09°21' W 079°54'0 0.0
2018-May-19 09:58N 09°21' W 079°54'0 0.0
2018-May-19 09:28N 09°21' W 079°54'0 0.0
2018-May-19 08:58N 09°21' W 079°54'0 0.0
2018-May-19 08:28N 09°21' W 079°54'0 0.0
2018-May-19 07:58N 09°21' W 079°54'0 0.0
2018-May-19 07:28N 09°21' W 079°54'0 0.0
2018-May-19 06:58N 09°21' W 079°54'0 0.0
2018-May-19 06:28N 09°21' W 079°54'0 0.0
2018-May-19 05:58N 09°21' W 079°54'0 0.0
2018-May-19 05:28N 09°21' W 079°54'0 0.0
2018-May-19 04:58N 09°21' W 079°54'0 0.0
2018-May-19 04:28N 09°21' W 079°54'0 0.0
2018-May-19 03:58N 09°21' W 079°54'0 0.0
2018-May-19 03:28N 09°21' W 079°54'0 0.0
2018-May-19 02:58N 09°21' W 079°54'0 0.0
2018-May-19 02:28N 09°21' W 079°54'0 0.0
2018-May-19 01:58N 09°21' W 079°54'0 0.0
2018-May-19 01:28N 09°21' W 079°54'0 0.0
2018-May-19 00:58N 09°21' W 079°54'0 0.0
2018-May-19 00:28N 09°21' W 079°54'0 0.0
2018-May-18 23:58N 09°21' W 079°54'0 0.0
2018-May-18 23:28N 09°21' W 079°54'0 0.0
2018-May-18 22:58N 09°21' W 079°54'0 0.0
2018-May-18 22:28N 09°21' W 079°54'0 0.0
2018-May-18 21:58N 09°21' W 079°54'0 0.0
2018-May-18 21:28N 09°21' W 079°54'0 0.0
2018-May-18 21:00N 09°21' W 079°54'0 0.3
2018-May-18 20:30N 09°21' W 079°55'0 0.9
2018-May-18 20:00N 09°21' W 079°55'1 2.8
2018-May-18 19:31N 09°22' W 079°55'3 6.8
2018-May-18 19:00N 09°26' W 079°55'2 4.8
2018-May-18 18:30N 09°25' W 079°58'1 2.4
2018-May-18 17:54N 09°24' W 079°58'0 0.1
2018-May-18 17:27N 09°24' W 079°58'0 0.1
2018-May-18 17:00N 09°24' W 079°58'0 0.1
2018-May-18 16:30N 09°24' W 079°58'0 0.0
2018-May-18 16:00N 09°24' W 079°58'0 0.1
2018-May-18 15:30N 09°24' W 079°58'0 0.1
2018-May-18 15:00N 09°24' W 079°58'0 0.0
2018-May-18 14:30N 09°24' W 079°58'0 0.3
2018-May-18 14:00N 09°24' W 079°58'0 0.1
2018-May-18 13:30N 09°24' W 079°58'0 0.4
2018-May-18 13:00N 09°24' W 079°58'0 0.1
2018-May-18 12:30N 09°24' W 079°58'0 0.1
2018-May-18 12:00N 09°24' W 079°58'0 0.0
2018-May-18 11:30N 09°24' W 079°58'0 0.1
2018-May-18 11:00N 09°24' W 079°58'0 0.0
2018-May-18 10:30N 09°24' W 079°58'0 0.0
2018-May-18 10:00N 09°24' W 079°58'0 0.0
2018-May-18 09:27N 09°24' W 079°58'0 0.0
2018-May-18 09:00N 09°24' W 079°58'0 0.1
2018-May-18 08:30N 09°24' W 079°58'0 0.0
2018-May-18 08:00N 09°24' W 079°58'0 0.1
2018-May-18 07:30N 09°24' W 079°58'0 0.1
2018-May-18 06:48N 09°24' W 079°58'0 0.1
2018-May-18 06:30N 09°24' W 079°58'0 0.0
2018-May-18 06:00N 09°24' W 079°58'0 0.0
2018-May-18 05:30N 09°24' W 079°58'0 0.0
2018-May-18 04:57N 09°24' W 079°58'0 0.0
2018-May-18 04:30N 09°24' W 079°58'0 0.1
2018-May-18 04:00N 09°24' W 079°58'0 0.0
2018-May-18 03:06N 09°24' W 079°58'0 0.0
2018-May-18 03:00N 09°24' W 079°58'0 0.0
2018-May-18 02:30N 09°24' W 079°58'0 0.1
2018-May-18 02:00N 09°24' W 079°58'0 0.0
2018-May-18 01:30N 09°24' W 079°58'0 0.0
2018-May-18 01:00N 09°24' W 079°58'0 0.0
2018-May-18 00:30N 09°24' W 079°58'0 0.0
2018-May-17 23:48N 09°24' W 079°58'0 0.3
2018-May-17 23:27N 09°24' W 079°58'1 2.0
2018-May-17 23:00N 09°24' W 079°59'4 7.3
2018-May-17 22:29N 09°26' W 079°55'510.7
2018-May-17 22:00N 09°21' W 079°55'4 7.2
2018-May-17 21:30N 09°17' W 079°55'1 1.6
2018-May-17 20:58N 09°16' W 079°55'0 0.2
2018-May-17 20:30N 09°16' W 079°55'0 0.4
2018-May-17 20:00N 09°16' W 079°55'0 0.5
2018-May-17 19:30N 09°16' W 079°55'0 0.1
2018-May-17 19:00N 09°16' W 079°55'1 1.3
2018-May-17 18:30N 09°15' W 079°55'0 0.7
2018-May-17 18:00N 09°15' W 079°55'3 5.1
2018-May-17 17:21N 09°12' W 079°54'  
Track history (hours):
 
Tides and Currents Weather Stations Pressure Air Temp Water Temp Dewpoint Dewpoint Depression Visibility Wind Speed Wind Dir Waves Ship Positions

MSC Lisbon

Last reported at 2018-May-24 14:33 UTC. Time now 2018-May-27 08:10 UTC.
Position N 31°56' W 080°20'.

Length 336.7 m; beam 45.6 m; draft 15.3 m.

MMSI: 636018079.

Date/timePositionNaut miles runAvg speedWind from/ knotsBaromVisibWave heightAir tempDewpointWater temp
2018-May-24 14:33N 31°56' W 080°20'513.0
2018-May-24 14:09N 31°54' W 080°26'1012.4
2018-May-24 13:19N 31°56' W 080°38'28 6.5
2018-May-24 08:56N 32°08' W 081°09'0 0.0
2018-May-24 08:26N 32°08' W 081°09'0 0.0
2018-May-24 07:44N 32°08' W 081°09'0 0.0
2018-May-24 07:26N 32°08' W 081°09'0 0.0
2018-May-24 06:56N 32°08' W 081°09'0 0.0
2018-May-24 06:26N 32°08' W 081°09'0 0.0
2018-May-24 05:56N 32°08' W 081°09'0 0.0
2018-May-24 05:26N 32°08' W 081°09'0 0.0
2018-May-24 04:56N 32°08' W 081°09'0 0.0
2018-May-24 04:20N 32°08' W 081°09'0 0.0
2018-May-24 03:50N 32°08' W 081°09'0 0.0
2018-May-24 03:26N 32°08' W 081°09'0 0.0
2018-May-24 02:56N 32°08' W 081°09'0 0.0
2018-May-24 02:26N 32°08' W 081°09'0 0.0
2018-May-24 01:56N 32°08' W 081°09'0 0.0
2018-May-24 01:26N 32°08' W 081°09'0 0.0
2018-May-24 00:56N 32°08' W 081°09'0 0.0
2018-May-24 00:26N 32°08' W 081°09'0 0.0
2018-May-23 23:56N 32°08' W 081°09'0 0.0
2018-May-23 23:26N 32°08' W 081°09'0 0.0
2018-May-23 22:56N 32°08' W 081°09'0 0.0
2018-May-23 22:26N 32°08' W 081°09'0 0.0
2018-May-23 21:56N 32°08' W 081°09'0 0.0
2018-May-23 21:26N 32°08' W 081°09'0 0.0
2018-May-23 20:56N 32°08' W 081°09'0 0.0
2018-May-23 20:26N 32°08' W 081°09'0 0.0
2018-May-23 19:56N 32°08' W 081°09'0 0.0
2018-May-23 19:20N 32°08' W 081°09'0 0.0
2018-May-23 18:56N 32°08' W 081°09'0 0.0
2018-May-23 18:26N 32°08' W 081°09'0 0.0
2018-May-23 17:56N 32°08' W 081°09'0 0.0
2018-May-23 17:20N 32°08' W 081°09'0 0.0
2018-May-23 16:56N 32°08' W 081°09'0 0.0
2018-May-23 16:30N 32°08' W 081°09'0 0.0
2018-May-23 15:59N 32°08' W 081°09'0 0.0
2018-May-23 15:28N 32°08' W 081°09'0 0.0
2018-May-23 14:55N 32°08' W 081°09'0 0.0
2018-May-23 14:27N 32°08' W 081°09'0 0.0
2018-May-23 14:00N 32°08' W 081°09'0 0.0
2018-May-23 13:30N 32°08' W 081°09'0 0.0
2018-May-23 12:59N 32°08' W 081°09'0 0.0
2018-May-23 12:29N 32°08' W 081°09'0 0.0
2018-May-23 11:43N 32°08' W 081°09'0 0.0
2018-May-23 11:25N 32°08' W 081°09'0 0.0
2018-May-23 10:54N 32°08' W 081°09'0 0.0
2018-May-23 10:30N 32°08' W 081°09'0 0.0
2018-May-23 10:00N 32°08' W 081°09'0 0.1
2018-May-23 09:30N 32°08' W 081°08'1 2.3
2018-May-23 09:00N 32°07' W 081°08'2 5.0
2018-May-23 08:30N 32°05' W 081°06'3 5.4
2018-May-23 08:00N 32°05' W 081°03'3 6.0
2018-May-23 07:30N 32°05' W 080°59'611.1
2018-May-23 07:00N 32°02' W 080°54'713.3
2018-May-23 06:30N 31°59' W 080°46'613.0
2018-May-23 06:00N 31°57' W 080°39'510.3
2018-May-23 05:30N 31°54' W 080°34'713.5
2018-May-23 05:00N 31°51' W 080°27'814.9
2018-May-23 04:28N 31°47' W 080°19'1415.2
2018-May-23 03:32N 31°39' W 080°05'115.6
2018-May-23 03:29N 31°39' W 080°04'2515.5
2018-May-23 01:54N 31°26' W 079°39'  
2018-May-19 19:23N 09°21' W 079°54'0 0.0
2018-May-19 18:59N 09°21' W 079°54'0 0.0
2018-May-19 18:29N 09°21' W 079°54'0 0.0
2018-May-19 17:59N 09°21' W 079°54'0 0.0
2018-May-19 17:29N 09°21' W 079°54'0 0.0
2018-May-19 16:59N 09°21' W 079°54'0 0.0
2018-May-19 16:29N 09°21' W 079°54'0 0.0
2018-May-19 15:59N 09°21' W 079°54'0 0.0
2018-May-19 15:29N 09°21' W 079°54'0 0.0
2018-May-19 14:59N 09°21' W 079°54'0 0.0
2018-May-19 14:28N 09°21' W 079°54'0 0.0
2018-May-19 13:58N 09°21' W 079°54'0 0.0
2018-May-19 13:28N 09°21' W 079°54'0 0.0
2018-May-19 12:58N 09°21' W 079°54'0 0.0
2018-May-19 12:28N 09°21' W 079°54'0 0.0
2018-May-19 11:58N 09°21' W 079°54'0 0.0
2018-May-19 11:28N 09°21' W 079°54'0 0.0
2018-May-19 10:58N 09°21' W 079°54'0 0.0
2018-May-19 10:28N 09°21' W 079°54'0 0.0
2018-May-19 09:58N 09°21' W 079°54'0 0.0
2018-May-19 09:28N 09°21' W 079°54'0 0.0
2018-May-19 08:58N 09°21' W 079°54'0 0.0
2018-May-19 08:28N 09°21' W 079°54'0 0.0
2018-May-19 07:58N 09°21' W 079°54'0 0.0
2018-May-19 07:28N 09°21' W 079°54'0 0.0
2018-May-19 06:58N 09°21' W 079°54'0 0.0
2018-May-19 06:28N 09°21' W 079°54'0 0.0
2018-May-19 05:58N 09°21' W 079°54'0 0.0
2018-May-19 05:28N 09°21' W 079°54'0 0.0
2018-May-19 04:58N 09°21' W 079°54'0 0.0
2018-May-19 04:28N 09°21' W 079°54'0 0.0
2018-May-19 03:58N 09°21' W 079°54'0 0.0
2018-May-19 03:28N 09°21' W 079°54'0 0.0
2018-May-19 02:58N 09°21' W 079°54'0 0.0
2018-May-19 02:28N 09°21' W 079°54'0 0.0
2018-May-19 01:58N 09°21' W 079°54'0 0.0
2018-May-19 01:28N 09°21' W 079°54'0 0.0
2018-May-19 00:58N 09°21' W 079°54'0 0.0
2018-May-19 00:28N 09°21' W 079°54'0 0.0
2018-May-18 23:58N 09°21' W 079°54'0 0.0
2018-May-18 23:28N 09°21' W 079°54'0 0.0
2018-May-18 22:58N 09°21' W 079°54'0 0.0
2018-May-18 22:28N 09°21' W 079°54'0 0.0
2018-May-18 21:58N 09°21' W 079°54'0 0.0
2018-May-18 21:28N 09°21' W 079°54'0 0.0
2018-May-18 21:00N 09°21' W 079°54'0 0.3
2018-May-18 20:30N 09°21' W 079°55'0 0.9
2018-May-18 20:00N 09°21' W 079°55'1 2.8
2018-May-18 19:31N 09°22' W 079°55'3 6.8
2018-May-18 19:00N 09°26' W 079°55'2 4.8
2018-May-18 18:30N 09°25' W 079°58'1 2.4
2018-May-18 17:54N 09°24' W 079°58'0 0.1
2018-May-18 17:27N 09°24' W 079°58'0 0.1
2018-May-18 17:00N 09°24' W 079°58'0 0.1
2018-May-18 16:30N 09°24' W 079°58'0 0.0
2018-May-18 16:00N 09°24' W 079°58'0 0.1
2018-May-18 15:30N 09°24' W 079°58'0 0.1
2018-May-18 15:00N 09°24' W 079°58'0 0.0
2018-May-18 14:30N 09°24' W 079°58'0 0.3
2018-May-18 14:00N 09°24' W 079°58'0 0.1
2018-May-18 13:30N 09°24' W 079°58'0 0.4
2018-May-18 13:00N 09°24' W 079°58'0 0.1
2018-May-18 12:30N 09°24' W 079°58'0 0.1
2018-May-18 12:00N 09°24' W 079°58'0 0.0
2018-May-18 11:30N 09°24' W 079°58'0 0.1
2018-May-18 11:00N 09°24' W 079°58'0 0.0
2018-May-18 10:30N 09°24' W 079°58'0 0.0
2018-May-18 10:00N 09°24' W 079°58'0 0.0
2018-May-18 09:27N 09°24' W 079°58'0 0.0
2018-May-18 09:00N 09°24' W 079°58'0 0.1
2018-May-18 08:30N 09°24' W 079°58'0 0.0
2018-May-18 08:00N 09°24' W 079°58'0 0.1
2018-May-18 07:30N 09°24' W 079°58'0 0.1
2018-May-18 06:48N 09°24' W 079°58'0 0.1
2018-May-18 06:30N 09°24' W 079°58'0 0.0
2018-May-18 06:00N 09°24' W 079°58'0 0.0
2018-May-18 05:30N 09°24' W 079°58'0 0.0
2018-May-18 04:57N 09°24' W 079°58'0 0.0
2018-May-18 04:30N 09°24' W 079°58'0 0.1
2018-May-18 04:00N 09°24' W 079°58'0 0.0
2018-May-18 03:06N 09°24' W 079°58'0 0.0
2018-May-18 03:00N 09°24' W 079°58'0 0.0
2018-May-18 02:30N 09°24' W 079°58'0 0.1
2018-May-18 02:00N 09°24' W 079°58'0 0.0
2018-May-18 01:30N 09°24' W 079°58'0 0.0
2018-May-18 01:00N 09°24' W 079°58'0 0.0
2018-May-18 00:30N 09°24' W 079°58'0 0.0
2018-May-17 23:48N 09°24' W 079°58'0 0.3
2018-May-17 23:27N 09°24' W 079°58'1 2.0
2018-May-17 23:00N 09°24' W 079°59'4 7.3
2018-May-17 22:29N 09°26' W 079°55'510.7
2018-May-17 22:00N 09°21' W 079°55'4 7.2
2018-May-17 21:30N 09°17' W 079°55'1 1.6
2018-May-17 20:58N 09°16' W 079°55'0 0.2
2018-May-17 20:30N 09°16' W 079°55'0 0.4
2018-May-17 20:00N 09°16' W 079°55'0 0.5
2018-May-17 19:30N 09°16' W 079°55'0 0.1
2018-May-17 19:00N 09°16' W 079°55'1 1.3
2018-May-17 18:30N 09°15' W 079°55'0 0.7
2018-May-17 18:00N 09°15' W 079°55'3 5.1
2018-May-17 17:21N 09°12' W 079°54'  

Dump ship's entire track history